Terminal Aerodrome Forecast
Issued by NWS

Home | Current Version | Previous Version | Text Only | Print | Product List | Glossary On
Versions: 1 2 3 4 5 6 7 8 9 10 11 12 13 14 15 16 17 18 19 20 21 22 23 24 25 26 27 28 29 30 31 32
193
FTUS45 KSLC 260100 AAA
TAFEVW
TAF AMD
KEVW 260100Z 2601/2624 29010KT P6SM VCTS SCT040CB BKN070
     FM260400 VRB04KT P6SM SCT050 BKN090
     FM261600 32007KT P6SM VCSH SCT060 BKN120
     FM262100 31011G18KT P6SM SCT040 BKN090=

USA.gov is the U.S. government's official web portal to all federal, state and local government web resources and services.